sensor_id;sensor_type;location;lat;lon;timestamp;pressure;altitude;pressure_sealevel;temperature;humidity
13011;BME280;6786;57.632;11.962;2023-02-11T00:02:21;100555.34;;;18.70;40.13
13011;BME280;6786;57.632;11.962;2023-02-11T00:04:49;100518.09;;;18.48;40.12
13011;BME280;6786;57.632;11.962;2023-02-11T00:07:17;100584.78;;;18.70;40.04
13011;BME280;6786;57.632;11.962;2023-02-11T00:09:46;100566.03;;;18.70;40.13
13011;BME280;6786;57.632;11.962;2023-02-11T00:12:15;100567.72;;;18.71;40.02
13011;BME280;6786;57.632;11.962;2023-02-11T00:14:45;100565.06;;;18.71;40.05
13011;BME280;6786;57.632;11.962;2023-02-11T00:17:13;100551.66;;;18.71;40.06
13011;BME280;6786;57.632;11.962;2023-02-11T00:19:41;100542.78;;;18.70;40.13
13011;BME280;6786;57.632;11.962;2023-02-11T00:22:09;100548.28;;;18.69;40.19
13011;BME280;6786;57.632;11.962;2023-02-11T00:24:37;100537.56;;;18.69;40.14
13011;BME280;6786;57.632;11.962;2023-02-11T00:27:06;100533.06;;;18.69;40.08
13011;BME280;6786;57.632;11.962;2023-02-11T00:29:36;100523.22;;;18.70;40.17
13011;BME280;6786;57.632;11.962;2023-02-11T00:32:04;100517.84;;;18.70;40.13
13011;BME280;6786;57.632;11.962;2023-02-11T00:34:35;100528.56;;;18.70;40.08
13011;BME280;6786;57.632;11.962;2023-02-11T00:37:04;100524.03;;;18.70;40.06
13011;BME280;6786;57.632;11.962;2023-02-11T00:39:32;100524.03;;;18.70;40.09
13011;BME280;6786;57.632;11.962;2023-02-11T00:42:00;100525.88;;;18.70;40.06
13011;BME280;6786;57.632;11.962;2023-02-11T00:44:29;100528.56;;;18.70;40.20
13011;BME280;6786;57.632;11.962;2023-02-11T00:46:58;100516.88;;;18.71;40.23
13011;BME280;6786;57.632;11.962;2023-02-11T00:49:26;100522.34;;;18.69;40.14
13011;BME280;6786;57.632;11.962;2023-02-11T00:51:54;100507.97;;;18.70;40.12
13011;BME280;6786;57.632;11.962;2023-02-11T00:54:23;100491.09;;;18.70;40.23
13011;BME280;6786;57.632;11.962;2023-02-11T00:56:53;100510.78;;;18.69;40.26
13011;BME280;6786;57.632;11.962;2023-02-11T00:59:21;100506.28;;;18.69;40.29
13011;BME280;6786;57.632;11.962;2023-02-11T01:01:49;100513.34;;;18.70;40.09
13011;BME280;6786;57.632;11.962;2023-02-11T01:04:19;100507.97;;;18.70;40.19
13011;BME280;6786;57.632;11.962;2023-02-11T01:06:47;100508.84;;;18.71;40.21
13011;BME280;6786;57.632;11.962;2023-02-11T01:09:15;100517.84;;;18.70;40.16
13011;BME280;6786;57.632;11.962;2023-02-11T01:11:43;100524.03;;;18.70;40.22
13011;BME280;6786;57.632;11.962;2023-02-11T01:14:11;100517.41;;;18.65;40.25
13011;BME280;6786;57.632;11.962;2023-02-11T01:16:39;100524.91;;;18.71;40.35
13011;BME280;6786;57.632;11.962;2023-02-11T01:19:07;100518.69;;;18.70;40.38
13011;BME280;6786;57.632;11.962;2023-02-11T01:21:37;100529.41;;;18.70;40.19
13011;BME280;6786;57.632;11.962;2023-02-11T01:24:05;100544.63;;;18.70;40.29
13011;BME280;6786;57.632;11.962;2023-02-11T01:26:34;100550.00;;;18.70;40.24
13011;BME280;6786;57.632;11.962;2023-02-11T01:29:02;100553.63;;;18.69;40.45
13011;BME280;6786;57.632;11.962;2023-02-11T01:31:30;100551.09;;;18.67;40.19
13011;BME280;6786;57.632;11.962;2023-02-11T01:33:58;100558.03;;;18.70;40.35
13011;BME280;6786;57.632;11.962;2023-02-11T01:36:27;100553.63;;;18.69;40.36
13011;BME280;6786;57.632;11.962;2023-02-11T01:38:57;100551.81;;;18.69;40.40
13011;BME280;6786;57.632;11.962;2023-02-11T01:41:25;100538.28;;;18.71;40.36
13011;BME280;6786;57.632;11.962;2023-02-11T01:43:53;100536.59;;;18.70;40.28
13011;BME280;6786;57.632;11.962;2023-02-11T01:46:31;100517.84;;;18.70;40.47
13011;BME280;6786;57.632;11.962;2023-02-11T01:49:04;100524.03;;;18.70;40.28
13011;BME280;6786;57.632;11.962;2023-02-11T01:51:36;100527.72;;;18.69;40.33
13011;BME280;6786;57.632;11.962;2023-02-11T01:54:09;100525.16;;;18.68;40.44
13011;BME280;6786;57.632;11.962;2023-02-11T01:56:57;100530.25;;;18.71;40.32
13011;BME280;6786;57.632;11.962;2023-02-11T01:59:46;100537.56;;;18.69;40.36
13011;BME280;6786;57.632;11.962;2023-02-11T02:02:19;100535.88;;;18.68;40.28
13011;BME280;6786;57.632;11.962;2023-02-11T02:04:54;100537.56;;;18.69;40.50
13011;BME280;6786;57.632;11.962;2023-02-11T02:07:29;100533.06;;;18.69;40.32
13011;BME280;6786;57.632;11.962;2023-02-11T02:10:04;100537.56;;;18.69;40.43
13011;BME280;6786;57.632;11.962;2023-02-11T02:12:34;100537.88;;;18.66;40.45
13011;BME280;6786;57.632;11.962;2023-02-11T02:15:18;100538.41;;;18.69;40.64
13011;BME280;6786;57.632;11.962;2023-02-11T02:17:55;100496.97;;;18.45;40.57
13011;BME280;6786;57.632;11.962;2023-02-11T02:23:34;100526.84;;;18.69;40.69
13011;BME280;6786;57.632;11.962;2023-02-11T02:26:24;100510.78;;;18.69;40.60
13011;BME280;6786;57.632;11.962;2023-02-11T02:29:33;100495.03;;;18.66;40.80
13011;BME280;6786;57.632;11.962;2023-02-11T02:32:28;100487.16;;;18.64;40.71
13011;BME280;6786;57.632;11.962;2023-02-11T02:35:07;100495.03;;;18.66;40.37
13011;BME280;6786;57.632;11.962;2023-02-11T02:37:40;100489.69;;;18.66;40.45
13011;BME280;6786;57.632;11.962;2023-02-11T02:40:14;100489.69;;;18.66;40.23
13011;BME280;6786;57.632;11.962;2023-02-11T02:42:45;100478.97;;;18.66;40.37
13011;BME280;6786;57.632;11.962;2023-02-11T02:45:14;100442.88;;;18.51;40.47
13011;BME280;6786;57.632;11.962;2023-02-11T02:47:44;100489.69;;;18.66;40.31
13011;BME280;6786;57.632;11.962;2023-02-11T02:50:15;100489.69;;;18.66;40.36
13011;BME280;6786;57.632;11.962;2023-02-11T02:52:49;100477.00;;;18.68;40.49
13011;BME280;6786;57.632;11.962;2023-02-11T02:55:38;100472.63;;;18.67;40.66
13011;BME280;6786;57.632;11.962;2023-02-11T03:01:07;100476.31;;;18.66;40.42
13011;BME280;6786;57.632;11.962;2023-02-11T03:03:47;100498.41;;;18.68;40.54
13011;BME280;6786;57.632;11.962;2023-02-11T03:06:22;100492.19;;;18.67;40.41
13011;BME280;6786;57.632;11.962;2023-02-11T03:08:55;100502.06;;;18.67;40.43
13011;BME280;6786;57.632;11.962;2023-02-11T03:11:25;100487.69;;;18.68;40.55
13011;BME280;6786;57.632;11.962;2023-02-11T03:13:55;100492.19;;;18.67;40.48
13011;BME280;6786;57.632;11.962;2023-02-11T03:16:27;100434.63;;;18.24;40.38
13011;BME280;6786;57.632;11.962;2023-02-11T03:19:01;100478.66;;;18.69;40.57
13011;BME280;6786;57.632;11.962;2023-02-11T03:21:31;100479.66;;;18.68;40.60
13011;BME280;6786;57.632;11.962;2023-02-11T03:24:02;100505.44;;;18.69;40.54
13011;BME280;6786;57.632;11.962;2023-02-11T03:26:37;100517.00;;;18.69;40.51
13011;BME280;6786;57.632;11.962;2023-02-11T03:29:13;100507.16;;;18.70;40.60
13011;BME280;6786;57.632;11.962;2023-02-11T03:31:50;100472.31;;;18.51;40.55
13011;BME280;6786;57.632;11.962;2023-02-11T03:34:26;100500.09;;;18.69;40.54
13011;BME280;6786;57.632;11.962;2023-02-11T03:37:00;100506.28;;;18.69;40.61
13011;BME280;6786;57.632;11.962;2023-02-11T03:39:34;100509.13;;;18.68;40.52
13011;BME280;6786;57.632;11.962;2023-02-11T03:42:05;100532.06;;;18.70;40.44
13011;BME280;6786;57.632;11.962;2023-02-11T03:44:37;100526.84;;;18.69;40.56
13011;BME280;6786;57.632;11.962;2023-02-11T03:47:10;100478.38;;;18.53;40.54
13011;BME280;6786;57.632;11.962;2023-02-11T03:49:44;100526.84;;;18.69;40.68
13011;BME280;6786;57.632;11.962;2023-02-11T03:52:14;100500.94;;;18.69;40.43
13011;BME280;6786;57.632;11.962;2023-02-11T03:54:45;100494.72;;;18.69;40.57
13011;BME280;6786;57.632;11.962;2023-02-11T03:57:15;100516.16;;;18.69;40.54
13011;BME280;6786;57.632;11.962;2023-02-11T03:59:52;100501.81;;;18.70;40.79
13011;BME280;6786;57.632;11.962;2023-02-11T04:02:21;100501.81;;;18.70;40.57
13011;BME280;6786;57.632;11.962;2023-02-11T04:04:52;100495.59;;;18.69;40.56
13011;BME280;6786;57.632;11.962;2023-02-11T04:07:20;100501.81;;;18.70;40.60
13011;BME280;6786;57.632;11.962;2023-02-11T04:09:48;100493.06;;;18.68;40.67
13011;BME280;6786;57.632;11.962;2023-02-11T04:12:16;100482.34;;;18.68;40.63
13011;BME280;6786;57.632;11.962;2023-02-11T04:14:45;100465.16;;;18.70;40.63
13011;BME280;6786;57.632;11.962;2023-02-11T04:17:13;100439.22;;;18.71;40.69
13011;BME280;6786;57.632;11.962;2023-02-11T04:19:41;100449.09;;;18.70;40.59
13011;BME280;6786;57.632;11.962;2023-02-11T04:22:10;100427.66;;;18.70;40.63
13011;BME280;6786;57.632;11.962;2023-02-11T04:24:38;100413.47;;;18.70;40.58
13011;BME280;6786;57.632;11.962;2023-02-11T04:27:06;100394.72;;;18.70;40.64
13011;BME280;6786;57.632;11.962;2023-02-11T04:29:34;100389.38;;;18.70;40.76
13011;BME280;6786;57.632;11.962;2023-02-11T04:32:03;100394.72;;;18.70;40.65
13011;BME280;6786;57.632;11.962;2023-02-11T04:34:31;100425.00;;;18.70;40.67
13011;BME280;6786;57.632;11.962;2023-02-11T04:36:59;100458.97;;;18.70;40.66
13011;BME280;6786;57.632;11.962;2023-02-11T04:39:28;100461.66;;;18.70;40.74
13011;BME280;6786;57.632;11.962;2023-02-11T04:41:56;100470.50;;;18.70;40.63
13011;BME280;6786;57.632;11.962;2023-02-11T04:44:25;100473.03;;;18.72;40.75
13011;BME280;6786;57.632;11.962;2023-02-11T04:46:53;100464.31;;;18.70;40.73
13011;BME280;6786;57.632;11.962;2023-02-11T04:49:21;100482.06;;;18.71;40.67
13011;BME280;6786;57.632;11.962;2023-02-11T04:51:49;100473.31;;;18.69;40.67
13011;BME280;6786;57.632;11.962;2023-02-11T04:54:17;100481.22;;;18.70;40.69
13011;BME280;6786;57.632;11.962;2023-02-11T04:56:47;100464.31;;;18.70;40.60
13011;BME280;6786;57.632;11.962;2023-02-11T04:59:16;100427.94;;;18.67;40.76
13011;BME280;6786;57.632;11.962;2023-02-11T05:01:44;100459.78;;;18.70;40.61
13011;BME280;6786;57.632;11.962;2023-02-11T05:04:13;100473.31;;;18.69;40.80
13011;BME280;6786;57.632;11.962;2023-02-11T05:06:41;100454.41;;;18.42;40.70
13011;BME280;6786;57.632;11.962;2023-02-11T05:09:09;100522.22;;;18.71;40.84
13011;BME280;6786;57.632;11.962;2023-02-11T05:11:38;100470.09;;;18.26;40.80
13011;BME280;6786;57.632;11.962;2023-02-11T05:14:07;100553.34;;;18.72;40.74
13011;BME280;6786;57.632;11.962;2023-02-11T05:16:35;100553.34;;;18.72;40.71
13011;BME280;6786;57.632;11.962;2023-02-11T05:19:04;100564.06;;;18.72;40.77
13011;BME280;6786;57.632;11.962;2023-02-11T05:21:32;100561.38;;;18.72;40.68
13011;BME280;6786;57.632;11.962;2023-02-11T05:24:00;100544.63;;;18.70;40.68
13011;BME280;6786;57.632;11.962;2023-02-11T05:26:28;100556.03;;;18.72;40.75
13011;BME280;6786;57.632;11.962;2023-02-11T05:28:57;100558.72;;;18.72;40.70
13011;BME280;6786;57.632;11.962;2023-02-11T05:31:26;100559.84;;;18.69;40.79
13011;BME280;6786;57.632;11.962;2023-02-11T05:33:54;100561.53;;;18.70;40.70
13011;BME280;6786;57.632;11.962;2023-02-11T05:36:22;100556.16;;;18.70;40.70
13011;BME280;6786;57.632;11.962;2023-02-11T05:38:50;100566.03;;;18.70;40.78
13011;BME280;6786;57.632;11.962;2023-02-11T05:41:19;100560.69;;;18.70;40.72
13011;BME280;6786;57.632;11.962;2023-02-11T05:43:47;100575.91;;;18.69;40.78
13011;BME280;6786;57.632;11.962;2023-02-11T05:46:17;100576.75;;;18.70;40.80
13011;BME280;6786;57.632;11.962;2023-02-11T05:48:46;100582.09;;;18.70;40.73
13011;BME280;6786;57.632;11.962;2023-02-11T05:51:14;100580.41;;;18.69;40.78
13011;BME280;6786;57.632;11.962;2023-02-11T05:53:43;100574.78;;;18.72;40.74
13011;BME280;6786;57.632;11.962;2023-02-11T05:56:11;100581.84;;;18.73;40.73
13011;BME280;6786;57.632;11.962;2023-02-11T05:58:40;100590.81;;;18.72;40.70
13011;BME280;6786;57.632;11.962;2023-02-11T06:01:08;100589.16;;;18.71;40.84
13011;BME280;6786;57.632;11.962;2023-02-11T06:03:36;100594.50;;;18.71;40.75
13011;BME280;6786;57.632;11.962;2023-02-11T06:06:08;100585.34;;;18.64;40.77
13011;BME280;6786;57.632;11.962;2023-02-11T06:08:37;100590.81;;;18.72;40.83
13011;BME280;6786;57.632;11.962;2023-02-11T06:11:05;100513.16;;;18.23;40.79
13011;BME280;6786;57.632;11.962;2023-02-11T06:13:34;100598.16;;;18.70;40.85
13011;BME280;6786;57.632;11.962;2023-02-11T06:16:02;100561.50;;;18.61;40.90
13011;BME280;6786;57.632;11.962;2023-02-11T06:18:31;100584.06;;;18.68;40.81
13011;BME280;6786;57.632;11.962;2023-02-11T06:20:59;100594.50;;;18.71;40.91
13011;BME280;6786;57.632;11.962;2023-02-11T06:23:29;100605.22;;;18.71;40.79
13011;BME280;6786;57.632;11.962;2023-02-11T06:26:00;100594.78;;;18.68;40.93
13011;BME280;6786;57.632;11.962;2023-02-11T06:28:29;100604.34;;;18.70;40.78
13011;BME280;6786;57.632;11.962;2023-02-11T06:30:58;100613.25;;;18.71;40.81
13011;BME280;6786;57.632;11.962;2023-02-11T06:33:32;100622.13;;;18.71;40.88
13011;BME280;6786;57.632;11.962;2023-02-11T06:36:01;100608.88;;;18.70;40.82
13011;BME280;6786;57.632;11.962;2023-02-11T06:38:31;100545.00;;;18.26;40.82
13011;BME280;6786;57.632;11.962;2023-02-11T06:40:59;100626.63;;;18.71;40.79
13011;BME280;6786;57.632;11.962;2023-02-11T06:43:27;100621.53;;;18.68;40.86
13011;BME280;6786;57.632;11.962;2023-02-11T06:45:55;100621.28;;;18.71;40.82
13011;BME280;6786;57.632;11.962;2023-02-11T06:48:23;100629.31;;;18.71;40.82
13011;BME280;6786;57.632;11.962;2023-02-11T06:50:51;100631.97;;;18.71;40.87
13011;BME280;6786;57.632;11.962;2023-02-11T06:53:19;100645.38;;;18.71;40.82
13011;BME280;6786;57.632;11.962;2023-02-11T06:55:49;100653.41;;;18.71;40.79
13011;BME280;6786;57.632;11.962;2023-02-11T06:58:17;100658.75;;;18.71;40.84
13011;BME280;6786;57.632;11.962;2023-02-11T07:00:45;100670.31;;;18.71;40.82
13011;BME280;6786;57.632;11.962;2023-02-11T07:03:13;100671.16;;;18.72;40.86
13011;BME280;6786;57.632;11.962;2023-02-11T07:05:42;100676.78;;;18.69;40.82
13011;BME280;6786;57.632;11.962;2023-02-11T07:08:10;100681.84;;;18.72;40.86
13011;BME280;6786;57.632;11.962;2023-02-11T07:10:38;100687.22;;;18.72;40.86
13011;BME280;6786;57.632;11.962;2023-02-11T07:13:08;100697.91;;;18.72;40.91
13011;BME280;6786;57.632;11.962;2023-02-11T07:15:36;100691.72;;;18.71;40.91
13011;BME280;6786;57.632;11.962;2023-02-11T07:18:04;100694.28;;;18.73;40.93
13011;BME280;6786;57.632;11.962;2023-02-11T07:20:32;100691.72;;;18.71;40.84
13011;BME280;6786;57.632;11.962;2023-02-11T07:23:00;100708.63;;;18.72;40.83
13011;BME280;6786;57.632;11.962;2023-02-11T07:25:28;100706.94;;;18.71;40.80
13011;BME280;6786;57.632;11.962;2023-02-11T07:27:56;100717.66;;;18.71;40.88
13011;BME280;6786;57.632;11.962;2023-02-11T07:30:26;100677.81;;;18.47;40.91
13011;BME280;6786;57.632;11.962;2023-02-11T07:32:55;100735.41;;;18.72;40.84
13011;BME280;6786;57.632;11.962;2023-02-11T07:35:23;100749.78;;;18.71;40.89
13011;BME280;6786;57.632;11.962;2023-02-11T07:37:51;100762.16;;;18.72;40.86
13011;BME280;6786;57.632;11.962;2023-02-11T07:40:19;100769.25;;;18.73;40.95
13011;BME280;6786;57.632;11.962;2023-02-11T07:42:47;100769.25;;;18.73;40.82
13011;BME280;6786;57.632;11.962;2023-02-11T07:45:16;100769.25;;;18.73;41.07
13011;BME280;6786;57.632;11.962;2023-02-11T07:47:45;100779.09;;;18.72;40.98
13011;BME280;6786;57.632;11.962;2023-02-11T07:50:14;100768.13;;;18.55;40.93
13011;BME280;6786;57.632;11.962;2023-02-11T07:52:42;100793.22;;;18.74;40.81
13011;BME280;6786;57.632;11.962;2023-02-11T07:55:10;100801.38;;;18.73;40.85
13011;BME280;6786;57.632;11.962;2023-02-11T07:57:38;100801.38;;;18.73;40.88
13011;BME280;6786;57.632;11.962;2023-02-11T08:00:07;100806.72;;;18.73;40.79
13011;BME280;6786;57.632;11.962;2023-02-11T08:02:35;100821.06;;;18.72;40.85
13011;BME280;6786;57.632;11.962;2023-02-11T08:05:05;100816.84;;;18.69;40.83
13011;BME280;6786;57.632;11.962;2023-02-11T08:07:34;100822.78;;;18.73;40.76
13011;BME280;6786;57.632;11.962;2023-02-11T08:10:03;100839.69;;;18.73;40.79
13011;BME280;6786;57.632;11.962;2023-02-11T08:12:31;100836.19;;;18.73;40.88
13011;BME280;6786;57.632;11.962;2023-02-11T08:14:59;100844.22;;;18.73;40.82
13011;BME280;6786;57.632;11.962;2023-02-11T08:17:27;100854.91;;;18.73;40.96
13011;BME280;6786;57.632;11.962;2023-02-11T08:19:55;100860.28;;;18.73;40.86
13011;BME280;6786;57.632;11.962;2023-02-11T08:22:24;100878.03;;;18.74;40.85
13011;BME280;6786;57.632;11.962;2023-02-11T08:24:53;100877.28;;;18.72;40.83
13011;BME280;6786;57.632;11.962;2023-02-11T08:27:22;100892.41;;;18.73;40.95
13011;BME280;6786;57.632;11.962;2023-02-11T08:29:52;100869.84;;;18.55;40.90
13011;BME280;6786;57.632;11.962;2023-02-11T08:32:21;100894.09;;;18.74;40.85
13011;BME280;6786;57.632;11.962;2023-02-11T08:34:51;100894.09;;;18.74;40.85
13011;BME280;6786;57.632;11.962;2023-02-11T08:37:19;100906.50;;;18.75;40.81
13011;BME280;6786;57.632;11.962;2023-02-11T08:39:49;100920.88;;;18.74;40.78
13011;BME280;6786;57.632;11.962;2023-02-11T08:42:17;100916.38;;;18.74;40.90
13011;BME280;6786;57.632;11.962;2023-02-11T08:44:46;100926.22;;;18.74;40.82
13011;BME280;6786;57.632;11.962;2023-02-11T08:47:14;100938.88;;;18.72;40.88
13011;BME280;6786;57.632;11.962;2023-02-11T08:49:42;100942.28;;;18.74;40.95
13011;BME280;6786;57.632;11.962;2023-02-11T08:52:10;100952.88;;;18.75;40.97
13011;BME280;6786;57.632;11.962;2023-02-11T08:54:38;100943.97;;;18.75;40.89
13011;BME280;6786;57.632;11.962;2023-02-11T08:57:07;100956.41;;;18.76;40.90
13011;BME280;6786;57.632;11.962;2023-02-11T08:59:35;100946.78;;;18.73;40.90
13011;BME280;6786;57.632;11.962;2023-02-11T09:02:06;100953.72;;;18.76;40.97
13011;BME280;6786;57.632;11.962;2023-02-11T09:04:34;100968.81;;;18.77;40.94
13011;BME280;6786;57.632;11.962;2023-02-11T09:07:02;100979.53;;;18.77;40.90
13011;BME280;6786;57.632;11.962;2023-02-11T09:09:30;100996.56;;;18.76;40.88
13011;BME280;6786;57.632;11.962;2023-02-11T09:11:58;100997.53;;;18.75;40.98
13011;BME280;6786;57.632;11.962;2023-02-11T09:14:28;101002.88;;;18.75;40.94
13011;BME280;6786;57.632;11.962;2023-02-11T09:16:56;101013.59;;;18.75;40.89
13011;BME280;6786;57.632;11.962;2023-02-11T09:19:24;101008.25;;;18.75;41.08
13011;BME280;6786;57.632;11.962;2023-02-11T09:21:52;101023.47;;;18.74;41.02
13011;BME280;6786;57.632;11.962;2023-02-11T09:24:20;101035.00;;;18.75;41.04
13011;BME280;6786;57.632;11.962;2023-02-11T09:26:48;101034.19;;;18.74;40.92
13011;BME280;6786;57.632;11.962;2023-02-11T09:29:16;101050.25;;;18.74;40.84
13011;BME280;6786;57.632;11.962;2023-02-11T09:31:46;101054.75;;;18.74;40.99
13011;BME280;6786;57.632;11.962;2023-02-11T09:34:14;101060.09;;;18.74;40.82
13011;BME280;6786;57.632;11.962;2023-02-11T09:36:42;101058.41;;;18.73;41.02
13011;BME280;6786;57.632;11.962;2023-02-11T09:39:12;101062.78;;;18.74;41.02
13011;BME280;6786;57.632;11.962;2023-02-11T09:44:31;101074.47;;;18.73;40.91
13011;BME280;6786;57.632;11.962;2023-02-11T09:47:02;101081.53;;;18.74;41.00
13011;BME280;6786;57.632;11.962;2023-02-11T09:49:36;101085.19;;;18.73;40.93
13011;BME280;6786;57.632;11.962;2023-02-11T09:52:12;101100.38;;;18.72;40.95
13011;BME280;6786;57.632;11.962;2023-02-11T09:54:52;101106.59;;;18.73;40.97
13011;BME280;6786;57.632;11.962;2023-02-11T09:57:21;101123.50;;;18.73;40.99
13011;BME280;6786;57.632;11.962;2023-02-11T09:59:55;101128.84;;;18.73;40.99
13011;BME280;6786;57.632;11.962;2023-02-11T10:02:31;101122.66;;;18.73;40.99
13011;BME280;6786;57.632;11.962;2023-02-11T10:05:23;101131.41;;;18.75;41.30
13011;BME280;6786;57.632;11.962;2023-02-11T10:07:57;101128.59;;;18.76;41.15
13011;BME280;6786;57.632;11.962;2023-02-11T10:10:40;101141.03;;;18.77;41.27
13011;BME280;6786;57.632;11.962;2023-02-11T10:13:28;101147.22;;;18.78;41.32
13011;BME280;6786;57.632;11.962;2023-02-11T10:16:05;101154.56;;;18.76;41.09
13011;BME280;6786;57.632;11.962;2023-02-11T10:21:35;101175.00;;;18.77;41.12
13011;BME280;6786;57.632;11.962;2023-02-11T10:24:11;101175.25;;;18.74;41.13
13011;BME280;6786;57.632;11.962;2023-02-11T10:26:40;101167.22;;;18.74;41.18
13011;BME280;6786;57.632;11.962;2023-02-11T10:29:19;101168.91;;;18.75;41.25
13011;BME280;6786;57.632;11.962;2023-02-11T10:31:50;101176.94;;;18.75;41.24
13011;BME280;6786;57.632;11.962;2023-02-11T10:34:20;101199.34;;;18.74;41.14
13011;BME280;6786;57.632;11.962;2023-02-11T10:36:48;101208.13;;;18.76;41.09
13011;BME280;6786;57.632;11.962;2023-02-11T10:39:18;101213.47;;;18.76;41.16
13011;BME280;6786;57.632;11.962;2023-02-11T10:41:50;101196.53;;;18.75;41.13
13011;BME280;6786;57.632;11.962;2023-02-11T10:44:23;101217.09;;;18.75;41.10
13011;BME280;6786;57.632;11.962;2023-02-11T10:46:52;101224.19;;;18.76;41.26
13011;BME280;6786;57.632;11.962;2023-02-11T10:49:38;101208.09;;;18.65;41.42
13011;BME280;6786;57.632;11.962;2023-02-11T10:52:25;101225.88;;;18.77;41.52
13011;BME280;6786;57.632;11.962;2023-02-11T10:55:02;101229.53;;;18.76;41.19
13011;BME280;6786;57.632;11.962;2023-02-11T10:57:33;101229.53;;;18.76;41.29
13011;BME280;6786;57.632;11.962;2023-02-11T11:00:19;101229.53;;;18.76;41.26
13011;BME280;6786;57.632;11.962;2023-02-11T11:02:53;101234.88;;;18.76;41.18
13011;BME280;6786;57.632;11.962;2023-02-11T11:05:28;101245.59;;;18.76;41.29
13011;BME280;6786;57.632;11.962;2023-02-11T11:07:59;101254.47;;;18.76;41.22
13011;BME280;6786;57.632;11.962;2023-02-11T11:10:38;101229.53;;;18.54;41.26
13011;BME280;6786;57.632;11.962;2023-02-11T11:13:28;101256.31;;;18.76;41.57
13011;BME280;6786;57.632;11.962;2023-02-11T11:16:15;101261.66;;;18.76;41.49
13011;BME280;6786;57.632;11.962;2023-02-11T11:18:44;101270.53;;;18.76;41.13
13011;BME280;6786;57.632;11.962;2023-02-11T11:21:17;101272.38;;;18.76;41.22
13011;BME280;6786;57.632;11.962;2023-02-11T11:23:48;101278.56;;;18.76;41.11
13011;BME280;6786;57.632;11.962;2023-02-11T11:26:17;101273.22;;;18.76;41.27
13011;BME280;6786;57.632;11.962;2023-02-11T11:28:55;101277.72;;;18.76;41.21
13011;BME280;6786;57.632;11.962;2023-02-11T11:31:26;101283.09;;;18.76;41.30
13011;BME280;6786;57.632;11.962;2023-02-11T11:33:57;101288.44;;;18.76;41.12
13011;BME280;6786;57.632;11.962;2023-02-11T11:36:35;101299.16;;;18.76;41.36
13011;BME280;6786;57.632;11.962;2023-02-11T11:39:17;101302.78;;;18.75;41.50
13011;BME280;6786;57.632;11.962;2023-02-11T11:41:54;101307.44;;;18.73;41.34
13011;BME280;6786;57.632;11.962;2023-02-11T11:44:29;101333.22;;;18.74;41.38
13011;BME280;6786;57.632;11.962;2023-02-11T11:47:19;101336.88;;;18.73;41.48
13011;BME280;6786;57.632;11.962;2023-02-11T11:49:55;101352.94;;;18.73;41.39
13011;BME280;6786;57.632;11.962;2023-02-11T11:52:38;101354.66;;;18.74;41.36
13011;BME280;6786;57.632;11.962;2023-02-11T11:55:13;101365.34;;;18.74;41.31
13011;BME280;6786;57.632;11.962;2023-02-11T11:57:44;101382.41;;;18.73;41.28
13011;BME280;6786;57.632;11.962;2023-02-11T12:00:14;101374.38;;;18.73;41.29
13011;BME280;6786;57.632;11.962;2023-02-11T12:03:15;101377.88;;;18.73;41.57
13011;BME280;6786;57.632;11.962;2023-02-11T12:06:01;101356.56;;;18.72;41.33
13011;BME280;6786;57.632;11.962;2023-02-11T12:08:41;101383.34;;;18.72;41.35
13011;BME280;6786;57.632;11.962;2023-02-11T12:11:17;101389.56;;;18.72;41.34
13011;BME280;6786;57.632;11.962;2023-02-11T12:14:02;101390.44;;;18.73;41.40
13011;BME280;6786;57.632;11.962;2023-02-11T12:16:42;101402.09;;;18.72;41.42
13011;BME280;6786;57.632;11.962;2023-02-11T12:19:24;101405.66;;;18.72;41.46
13011;BME280;6786;57.632;11.962;2023-02-11T12:22:04;101411.00;;;18.72;41.27
13011;BME280;6786;57.632;11.962;2023-02-11T12:24:58;101422.56;;;18.73;41.53
13011;BME280;6786;57.632;11.962;2023-02-11T12:27:41;101422.56;;;18.73;41.38
13011;BME280;6786;57.632;11.962;2023-02-11T12:30:31;101429.75;;;18.72;41.33
13011;BME280;6786;57.632;11.962;2023-02-11T12:33:07;101436.91;;;18.72;41.22
13011;BME280;6786;57.632;11.962;2023-02-11T12:35:47;101436.91;;;18.72;41.41
13011;BME280;6786;57.632;11.962;2023-02-11T12:38:55;101441.31;;;18.73;41.67
13011;BME280;6786;57.632;11.962;2023-02-11T12:41:42;101452.97;;;18.72;41.46
13011;BME280;6786;57.632;11.962;2023-02-11T12:44:40;101452.03;;;18.73;41.42
13011;BME280;6786;57.632;11.962;2023-02-11T12:47:19;101451.28;;;18.71;41.31
13011;BME280;6786;57.632;11.962;2023-02-11T12:50:03;101456.63;;;18.71;41.53
13011;BME280;6786;57.632;11.962;2023-02-11T12:52:44;101462.00;;;18.71;41.34
13011;BME280;6786;57.632;11.962;2023-02-11T12:55:19;101477.06;;;18.72;41.38
13011;BME280;6786;57.632;11.962;2023-02-11T12:57:53;101468.81;;;18.75;41.56
13011;BME280;6786;57.632;11.962;2023-02-11T13:00:26;101463.47;;;18.75;41.59
13011;BME280;6786;57.632;11.962;2023-02-11T13:03:03;101481.84;;;18.79;41.70
13011;BME280;6786;57.632;11.962;2023-02-11T13:05:37;101478.25;;;18.80;41.73
13011;BME280;6786;57.632;11.962;2023-02-11T13:08:10;101478.84;;;18.84;41.78
13011;BME280;6786;57.632;11.962;2023-02-11T13:10:41;101487.63;;;18.86;41.78
13011;BME280;6786;57.632;11.962;2023-02-11T13:13:14;101483.97;;;18.87;41.74
13011;BME280;6786;57.632;11.962;2023-02-11T13:15:49;101480.34;;;18.88;41.90
13011;BME280;6786;57.632;11.962;2023-02-11T13:18:34;101483.97;;;18.87;42.49
13011;BME280;6786;57.632;11.962;2023-02-11T13:21:18;101497.88;;;18.92;42.50
13011;BME280;6786;57.632;11.962;2023-02-11T13:23:54;101498.09;;;18.89;41.95
13011;BME280;6786;57.632;11.962;2023-02-11T13:26:29;101506.91;;;18.91;41.67
13011;BME280;6786;57.632;11.962;2023-02-11T13:29:12;101522.22;;;18.89;41.90